sensor_id;sensor_type;location;lat;lon;timestamp;P1;durP1;ratioP1;P2;durP2;ratioP2
24557;SDS011;12726;49.148;8.582;2023-04-25T00:01:46;4.00;;;2.90;;
24557;SDS011;12726;49.148;8.582;2023-04-25T00:04:32;5.47;;;3.28;;
24557;SDS011;12726;49.148;8.582;2023-04-25T00:07:17;5.65;;;3.17;;
24557;SDS011;12726;49.148;8.582;2023-04-25T00:10:03;4.57;;;3.38;;
24557;SDS011;12726;49.148;8.582;2023-04-25T00:12:50;5.50;;;3.28;;
24557;SDS011;12726;49.148;8.582;2023-04-25T00:15:37;6.38;;;3.83;;
24557;SDS011;12726;49.148;8.582;2023-04-25T00:18:22;5.00;;;3.53;;
24557;SDS011;12726;49.148;8.582;2023-04-25T00:21:08;4.15;;;3.75;;
24557;SDS011;12726;49.148;8.582;2023-04-25T00:23:54;5.07;;;3.70;;
24557;SDS011;12726;49.148;8.582;2023-04-25T00:26:40;5.65;;;3.25;;
24557;SDS011;12726;49.148;8.582;2023-04-25T00:29:26;4.60;;;3.17;;
24557;SDS011;12726;49.148;8.582;2023-04-25T00:32:12;3.83;;;3.25;;
24557;SDS011;12726;49.148;8.582;2023-04-25T00:34:58;4.43;;;3.60;;
24557;SDS011;12726;49.148;8.582;2023-04-25T00:37:43;4.15;;;3.58;;
24557;SDS011;12726;49.148;8.582;2023-04-25T00:40:29;8.18;;;4.03;;
24557;SDS011;12726;49.148;8.582;2023-04-25T00:43:14;6.32;;;4.07;;
24557;SDS011;12726;49.148;8.582;2023-04-25T00:46:00;4.57;;;3.67;;
24557;SDS011;12726;49.148;8.582;2023-04-25T00:48:46;6.90;;;3.63;;
24557;SDS011;12726;49.148;8.582;2023-04-25T00:51:32;5.53;;;3.47;;
24557;SDS011;12726;49.148;8.582;2023-04-25T00:54:17;3.57;;;3.00;;
24557;SDS011;12726;49.148;8.582;2023-04-25T00:57:03;4.40;;;3.45;;
24557;SDS011;12726;49.148;8.582;2023-04-25T00:59:48;3.72;;;3.30;;
24557;SDS011;12726;49.148;8.582;2023-04-25T01:02:36;7.70;;;3.38;;
24557;SDS011;12726;49.148;8.582;2023-04-25T01:05:23;4.82;;;3.80;;
24557;SDS011;12726;49.148;8.582;2023-04-25T01:08:09;5.13;;;3.88;;
24557;SDS011;12726;49.148;8.582;2023-04-25T01:10:54;7.80;;;4.00;;
24557;SDS011;12726;49.148;8.582;2023-04-25T01:13:40;4.88;;;3.67;;
24557;SDS011;12726;49.148;8.582;2023-04-25T01:16:25;4.93;;;3.97;;
24557;SDS011;12726;49.148;8.582;2023-04-25T01:19:10;5.57;;;4.20;;
24557;SDS011;12726;49.148;8.582;2023-04-25T01:21:57;5.45;;;4.05;;
24557;SDS011;12726;49.148;8.582;2023-04-25T01:24:43;5.85;;;4.30;;
24557;SDS011;12726;49.148;8.582;2023-04-25T01:27:29;8.10;;;4.38;;
24557;SDS011;12726;49.148;8.582;2023-04-25T01:30:15;6.22;;;4.20;;
24557;SDS011;12726;49.148;8.582;2023-04-25T01:33:00;6.57;;;4.13;;
24557;SDS011;12726;49.148;8.582;2023-04-25T01:35:48;6.80;;;4.43;;
24557;SDS011;12726;49.148;8.582;2023-04-25T01:38:35;5.55;;;3.65;;
24557;SDS011;12726;49.148;8.582;2023-04-25T01:41:21;4.97;;;4.07;;
24557;SDS011;12726;49.148;8.582;2023-04-25T01:44:07;5.90;;;4.18;;
24557;SDS011;12726;49.148;8.582;2023-04-25T01:46:52;5.53;;;4.15;;
24557;SDS011;12726;49.148;8.582;2023-04-25T01:49:37;4.28;;;3.83;;
24557;SDS011;12726;49.148;8.582;2023-04-25T01:52:23;6.35;;;3.70;;
24557;SDS011;12726;49.148;8.582;2023-04-25T01:55:10;4.88;;;4.10;;
24557;SDS011;12726;49.148;8.582;2023-04-25T01:57:56;6.15;;;4.32;;
24557;SDS011;12726;49.148;8.582;2023-04-25T02:00:42;6.38;;;4.10;;
24557;SDS011;12726;49.148;8.582;2023-04-25T02:03:28;6.05;;;4.30;;
24557;SDS011;12726;49.148;8.582;2023-04-25T02:06:14;6.40;;;4.13;;
24557;SDS011;12726;49.148;8.582;2023-04-25T02:08:59;6.13;;;3.80;;
24557;SDS011;12726;49.148;8.582;2023-04-25T02:11:46;4.82;;;4.00;;
24557;SDS011;12726;49.148;8.582;2023-04-25T02:14:31;5.68;;;4.40;;
24557;SDS011;12726;49.148;8.582;2023-04-25T02:17:17;7.30;;;4.20;;
24557;SDS011;12726;49.148;8.582;2023-04-25T02:20:02;5.75;;;4.38;;
24557;SDS011;12726;49.148;8.582;2023-04-25T02:22:48;4.88;;;4.07;;
24557;SDS011;12726;49.148;8.582;2023-04-25T02:25:34;8.32;;;4.68;;
24557;SDS011;12726;49.148;8.582;2023-04-25T02:28:20;5.38;;;4.30;;
24557;SDS011;12726;49.148;8.582;2023-04-25T02:31:06;5.18;;;4.25;;
24557;SDS011;12726;49.148;8.582;2023-04-25T02:33:51;6.07;;;4.53;;
24557;SDS011;12726;49.148;8.582;2023-04-25T02:36:37;6.60;;;4.10;;
24557;SDS011;12726;49.148;8.582;2023-04-25T02:39:22;7.10;;;4.40;;
24557;SDS011;12726;49.148;8.582;2023-04-25T02:42:09;7.07;;;4.80;;
24557;SDS011;12726;49.148;8.582;2023-04-25T02:44:55;8.88;;;5.10;;
24557;SDS011;12726;49.148;8.582;2023-04-25T02:47:40;7.40;;;4.88;;
24557;SDS011;12726;49.148;8.582;2023-04-25T02:50:26;6.80;;;4.38;;
24557;SDS011;12726;49.148;8.582;2023-04-25T02:53:11;5.13;;;4.28;;
24557;SDS011;12726;49.148;8.582;2023-04-25T02:55:57;7.57;;;4.80;;
24557;SDS011;12726;49.148;8.582;2023-04-25T02:58:43;7.45;;;4.90;;
24557;SDS011;12726;49.148;8.582;2023-04-25T03:01:30;7.20;;;5.05;;
24557;SDS011;12726;49.148;8.582;2023-04-25T03:04:15;6.97;;;4.90;;
24557;SDS011;12726;49.148;8.582;2023-04-25T03:07:02;6.00;;;5.03;;
24557;SDS011;12726;49.148;8.582;2023-04-25T03:09:47;8.95;;;5.47;;
24557;SDS011;12726;49.148;8.582;2023-04-25T03:12:33;9.10;;;5.90;;
24557;SDS011;12726;49.148;8.582;2023-04-25T03:15:18;9.15;;;5.55;;
24557;SDS011;12726;49.148;8.582;2023-04-25T03:18:05;9.02;;;5.38;;
24557;SDS011;12726;49.148;8.582;2023-04-25T03:20:51;6.72;;;5.28;;
24557;SDS011;12726;49.148;8.582;2023-04-25T03:23:36;6.88;;;5.43;;
24557;SDS011;12726;49.148;8.582;2023-04-25T03:26:22;7.82;;;5.80;;
24557;SDS011;12726;49.148;8.582;2023-04-25T03:29:08;7.45;;;5.38;;
24557;SDS011;12726;49.148;8.582;2023-04-25T03:31:53;8.43;;;6.03;;
24557;SDS011;12726;49.148;8.582;2023-04-25T03:34:40;9.88;;;5.90;;
24557;SDS011;12726;49.148;8.582;2023-04-25T03:37:25;8.73;;;5.95;;
24557;SDS011;12726;49.148;8.582;2023-04-25T03:40:11;8.43;;;5.80;;
24557;SDS011;12726;49.148;8.582;2023-04-25T03:42:57;6.97;;;5.60;;
24557;SDS011;12726;49.148;8.582;2023-04-25T03:45:42;7.63;;;5.82;;
24557;SDS011;12726;49.148;8.582;2023-04-25T03:48:27;8.68;;;6.35;;
24557;SDS011;12726;49.148;8.582;2023-04-25T03:51:14;7.65;;;5.65;;
24557;SDS011;12726;49.148;8.582;2023-04-25T03:53:59;8.15;;;6.03;;
24557;SDS011;12726;49.148;8.582;2023-04-25T03:56:45;7.93;;;5.97;;
24557;SDS011;12726;49.148;8.582;2023-04-25T03:59:30;8.38;;;5.70;;
24557;SDS011;12726;49.148;8.582;2023-04-25T04:02:15;7.80;;;5.50;;
24557;SDS011;12726;49.148;8.582;2023-04-25T04:05:01;7.20;;;5.50;;
24557;SDS011;12726;49.148;8.582;2023-04-25T04:07:47;8.73;;;6.28;;
24557;SDS011;12726;49.148;8.582;2023-04-25T04:10:33;9.00;;;6.20;;
24557;SDS011;12726;49.148;8.582;2023-04-25T04:13:18;8.50;;;6.15;;
24557;SDS011;12726;49.148;8.582;2023-04-25T04:16:04;8.45;;;6.65;;
24557;SDS011;12726;49.148;8.582;2023-04-25T04:18:50;8.63;;;5.88;;
24557;SDS011;12726;49.148;8.582;2023-04-25T04:21:35;10.05;;;6.10;;
24557;SDS011;12726;49.148;8.582;2023-04-25T04:24:22;9.00;;;6.53;;
24557;SDS011;12726;49.148;8.582;2023-04-25T04:27:07;8.70;;;6.00;;
24557;SDS011;12726;49.148;8.582;2023-04-25T04:29:52;7.97;;;5.97;;
24557;SDS011;12726;49.148;8.582;2023-04-25T04:32:38;9.43;;;6.57;;
24557;SDS011;12726;49.148;8.582;2023-04-25T04:35:23;10.82;;;7.22;;
24557;SDS011;12726;49.148;8.582;2023-04-25T04:38:09;9.27;;;6.45;;
24557;SDS011;12726;49.148;8.582;2023-04-25T04:40:56;8.43;;;5.60;;
24557;SDS011;12726;49.148;8.582;2023-04-25T04:43:42;7.57;;;6.00;;
24557;SDS011;12726;49.148;8.582;2023-04-25T04:46:28;9.05;;;5.72;;
24557;SDS011;12726;49.148;8.582;2023-04-25T04:49:13;7.88;;;6.07;;
24557;SDS011;12726;49.148;8.582;2023-04-25T04:51:59;9.00;;;6.50;;
24557;SDS011;12726;49.148;8.582;2023-04-25T04:54:44;10.13;;;6.15;;
24557;SDS011;12726;49.148;8.582;2023-04-25T04:57:31;9.95;;;6.80;;
24557;SDS011;12726;49.148;8.582;2023-04-25T05:00:17;9.07;;;5.50;;
24557;SDS011;12726;49.148;8.582;2023-04-25T05:03:04;7.75;;;6.38;;
24557;SDS011;12726;49.148;8.582;2023-04-25T05:05:50;8.55;;;6.35;;
24557;SDS011;12726;49.148;8.582;2023-04-25T05:08:35;9.15;;;6.32;;
24557;SDS011;12726;49.148;8.582;2023-04-25T05:11:21;8.13;;;6.03;;
24557;SDS011;12726;49.148;8.582;2023-04-25T05:14:08;7.80;;;6.03;;
24557;SDS011;12726;49.148;8.582;2023-04-25T05:16:53;9.02;;;6.40;;
24557;SDS011;12726;49.148;8.582;2023-04-25T05:19:39;9.07;;;6.47;;
24557;SDS011;12726;49.148;8.582;2023-04-25T05:22:24;9.27;;;5.60;;
24557;SDS011;12726;49.148;8.582;2023-04-25T05:25:10;6.90;;;5.22;;
24557;SDS011;12726;49.148;8.582;2023-04-25T05:27:55;8.73;;;6.35;;
24557;SDS011;12726;49.148;8.582;2023-04-25T05:30:42;8.25;;;5.88;;
24557;SDS011;12726;49.148;8.582;2023-04-25T05:33:27;7.50;;;6.18;;
24557;SDS011;12726;49.148;8.582;2023-04-25T05:36:13;6.80;;;5.25;;
24557;SDS011;12726;49.148;8.582;2023-04-25T05:38:58;9.65;;;7.40;;
24557;SDS011;12726;49.148;8.582;2023-04-25T05:41:43;10.80;;;6.40;;
24557;SDS011;12726;49.148;8.582;2023-04-25T05:44:29;8.93;;;6.30;;
24557;SDS011;12726;49.148;8.582;2023-04-25T05:47:16;9.43;;;5.47;;
24557;SDS011;12726;49.148;8.582;2023-04-25T05:50:01;7.63;;;6.03;;
24557;SDS011;12726;49.148;8.582;2023-04-25T05:52:47;8.13;;;6.57;;
24557;SDS011;12726;49.148;8.582;2023-04-25T05:55:32;6.50;;;5.38;;
24557;SDS011;12726;49.148;8.582;2023-04-25T05:58:18;7.63;;;5.93;;
24557;SDS011;12726;49.148;8.582;2023-04-25T06:01:04;7.38;;;5.63;;
24557;SDS011;12726;49.148;8.582;2023-04-25T06:03:50;7.50;;;5.43;;
24557;SDS011;12726;49.148;8.582;2023-04-25T06:06:36;8.38;;;5.13;;
24557;SDS011;12726;49.148;8.582;2023-04-25T06:09:21;8.27;;;5.63;;
24557;SDS011;12726;49.148;8.582;2023-04-25T06:12:07;7.05;;;5.35;;
24557;SDS011;12726;49.148;8.582;2023-04-25T06:14:52;7.20;;;5.18;;
24557;SDS011;12726;49.148;8.582;2023-04-25T06:17:38;6.63;;;5.15;;
24557;SDS011;12726;49.148;8.582;2023-04-25T06:20:24;8.13;;;5.15;;
24557;SDS011;12726;49.148;8.582;2023-04-25T06:23:10;7.32;;;5.93;;
24557;SDS011;12726;49.148;8.582;2023-04-25T06:25:55;8.32;;;5.35;;
24557;SDS011;12726;49.148;8.582;2023-04-25T06:28:41;7.90;;;5.60;;
24557;SDS011;12726;49.148;8.582;2023-04-25T06:31:26;7.43;;;5.55;;
24557;SDS011;12726;49.148;8.582;2023-04-25T06:34:12;7.15;;;5.32;;
24557;SDS011;12726;49.148;8.582;2023-04-25T06:36:59;7.13;;;5.60;;
24557;SDS011;12726;49.148;8.582;2023-04-25T06:39:44;6.45;;;5.25;;
24557;SDS011;12726;49.148;8.582;2023-04-25T06:42:29;6.90;;;5.10;;
24557;SDS011;12726;49.148;8.582;2023-04-25T06:45:15;7.60;;;4.85;;
24557;SDS011;12726;49.148;8.582;2023-04-25T06:48:00;6.60;;;4.80;;
24557;SDS011;12726;49.148;8.582;2023-04-25T06:50:46;7.53;;;5.20;;
24557;SDS011;12726;49.148;8.582;2023-04-25T06:53:32;5.63;;;4.75;;
24557;SDS011;12726;49.148;8.582;2023-04-25T06:56:18;7.88;;;5.57;;
24557;SDS011;12726;49.148;8.582;2023-04-25T06:59:03;9.45;;;5.30;;
24557;SDS011;12726;49.148;8.582;2023-04-25T07:01:48;9.95;;;5.65;;
24557;SDS011;12726;49.148;8.582;2023-04-25T07:04:34;11.73;;;5.85;;
24557;SDS011;12726;49.148;8.582;2023-04-25T07:07:19;7.30;;;5.80;;
24557;SDS011;12726;49.148;8.582;2023-04-25T07:10:06;7.22;;;5.90;;
24557;SDS011;12726;49.148;8.582;2023-04-25T07:12:51;6.75;;;5.68;;
24557;SDS011;12726;49.148;8.582;2023-04-25T07:15:36;6.78;;;5.63;;
24557;SDS011;12726;49.148;8.582;2023-04-25T07:18:22;7.10;;;5.07;;
24557;SDS011;12726;49.148;8.582;2023-04-25T07:21:07;6.88;;;5.65;;
24557;SDS011;12726;49.148;8.582;2023-04-25T07:23:52;6.68;;;5.00;;
24557;SDS011;12726;49.148;8.582;2023-04-25T07:26:39;6.50;;;5.03;;
24557;SDS011;12726;49.148;8.582;2023-04-25T07:29:24;6.97;;;5.53;;
24557;SDS011;12726;49.148;8.582;2023-04-25T07:32:10;7.38;;;5.38;;
24557;SDS011;12726;49.148;8.582;2023-04-25T07:34:57;8.63;;;6.35;;
24557;SDS011;12726;49.148;8.582;2023-04-25T07:37:42;7.95;;;5.82;;
24557;SDS011;12726;49.148;8.582;2023-04-25T07:40:28;8.13;;;6.13;;
24557;SDS011;12726;49.148;8.582;2023-04-25T07:43:15;9.02;;;6.03;;
24557;SDS011;12726;49.148;8.582;2023-04-25T07:46:00;7.57;;;6.35;;
24557;SDS011;12726;49.148;8.582;2023-04-25T07:48:46;9.60;;;6.20;;
24557;SDS011;12726;49.148;8.582;2023-04-25T07:51:31;8.43;;;6.32;;
24557;SDS011;12726;49.148;8.582;2023-04-25T07:54:17;8.50;;;6.60;;
24557;SDS011;12726;49.148;8.582;2023-04-25T07:57:02;8.18;;;6.32;;
24557;SDS011;12726;49.148;8.582;2023-04-25T07:59:49;8.45;;;6.75;;
24557;SDS011;12726;49.148;8.582;2023-04-25T08:02:34;8.82;;;6.95;;
24557;SDS011;12726;49.148;8.582;2023-04-25T08:05:20;10.45;;;7.53;;
24557;SDS011;12726;49.148;8.582;2023-04-25T08:08:05;8.95;;;6.80;;
24557;SDS011;12726;49.148;8.582;2023-04-25T08:10:51;8.80;;;7.10;;
24557;SDS011;12726;49.148;8.582;2023-04-25T08:13:36;8.77;;;7.15;;
24557;SDS011;12726;49.148;8.582;2023-04-25T08:16:23;11.48;;;6.93;;
24557;SDS011;12726;49.148;8.582;2023-04-25T08:19:08;10.38;;;7.60;;
24557;SDS011;12726;49.148;8.582;2023-04-25T08:21:54;9.65;;;6.65;;
24557;SDS011;12726;49.148;8.582;2023-04-25T08:24:40;9.95;;;7.63;;
24557;SDS011;12726;49.148;8.582;2023-04-25T08:27:26;11.18;;;7.68;;
24557;SDS011;12726;49.148;8.582;2023-04-25T08:30:11;13.05;;;9.52;;
24557;SDS011;12726;49.148;8.582;2023-04-25T08:32:58;11.55;;;8.25;;
24557;SDS011;12726;49.148;8.582;2023-04-25T08:35:44;12.43;;;8.77;;
24557;SDS011;12726;49.148;8.582;2023-04-25T08:38:29;13.60;;;9.23;;
24557;SDS011;12726;49.148;8.582;2023-04-25T08:41:14;20.35;;;9.23;;
24557;SDS011;12726;49.148;8.582;2023-04-25T08:44:01;17.65;;;9.80;;
24557;SDS011;12726;49.148;8.582;2023-04-25T08:46:48;15.93;;;9.43;;
24557;SDS011;12726;49.148;8.582;2023-04-25T08:49:35;17.50;;;9.80;;
24557;SDS011;12726;49.148;8.582;2023-04-25T08:52:23;16.23;;;9.88;;
24557;SDS011;12726;49.148;8.582;2023-04-25T08:55:08;15.23;;;9.55;;
24557;SDS011;12726;49.148;8.582;2023-04-25T08:57:55;14.82;;;9.70;;
24557;SDS011;12726;49.148;8.582;2023-04-25T09:00:42;14.02;;;8.98;;
24557;SDS011;12726;49.148;8.582;2023-04-25T09:03:27;15.98;;;9.68;;
24557;SDS011;12726;49.148;8.582;2023-04-25T09:06:14;14.75;;;9.07;;
24557;SDS011;12726;49.148;8.582;2023-04-25T09:09:04;18.25;;;8.70;;
24557;SDS011;12726;49.148;8.582;2023-04-25T09:11:51;16.77;;;8.90;;
24557;SDS011;12726;49.148;8.582;2023-04-25T09:14:39;11.75;;;8.25;;
24557;SDS011;12726;49.148;8.582;2023-04-25T09:17:25;11.20;;;7.45;;
24557;SDS011;12726;49.148;8.582;2023-04-25T09:20:12;14.25;;;8.40;;
24557;SDS011;12726;49.148;8.582;2023-04-25T09:23:03;11.48;;;6.20;;
24557;SDS011;12726;49.148;8.582;2023-04-25T09:25:51;11.27;;;5.47;;
24557;SDS011;12726;49.148;8.582;2023-04-25T09:28:38;11.35;;;4.88;;
24557;SDS011;12726;49.148;8.582;2023-04-25T09:31:23;11.20;;;5.45;;
24557;SDS011;12726;49.148;8.582;2023-04-25T09:34:09;9.18;;;5.43;;
24557;SDS011;12726;49.148;8.582;2023-04-25T09:37:01;9.88;;;4.95;;
24557;SDS011;12726;49.148;8.582;2023-04-25T09:39:47;13.43;;;6.00;;
24557;SDS011;12726;49.148;8.582;2023-04-25T09:42:34;9.95;;;5.25;;
24557;SDS011;12726;49.148;8.582;2023-04-25T09:45:19;9.93;;;5.78;;
24557;SDS011;12726;49.148;8.582;2023-04-25T09:48:05;13.80;;;5.85;;
24557;SDS011;12726;49.148;8.582;2023-04-25T09:51:03;8.90;;;5.47;;
24557;SDS011;12726;49.148;8.582;2023-04-25T09:53:52;14.00;;;5.75;;
24557;SDS011;12726;49.148;8.582;2023-04-25T09:56:39;12.18;;;6.40;;
24557;SDS011;12726;49.148;8.582;2023-04-25T09:59:25;12.05;;;5.75;;
24557;SDS011;12726;49.148;8.582;2023-04-25T10:02:10;15.82;;;6.55;;
24557;SDS011;12726;49.148;8.582;2023-04-25T10:04:56;15.80;;;6.00;;
24557;SDS011;12726;49.148;8.582;2023-04-25T10:07:42;12.13;;;5.70;;
24557;SDS011;12726;49.148;8.582;2023-04-25T10:10:28;10.75;;;5.97;;
24557;SDS011;12726;49.148;8.582;2023-04-25T10:13:21;12.95;;;5.93;;
24557;SDS011;12726;49.148;8.582;2023-04-25T10:16:08;9.10;;;6.18;;
24557;SDS011;12726;49.148;8.582;2023-04-25T10:18:54;11.90;;;5.95;;
24557;SDS011;12726;49.148;8.582;2023-04-25T10:21:43;12.70;;;6.40;;
24557;SDS011;12726;49.148;8.582;2023-04-25T10:24:33;15.93;;;7.55;;
24557;SDS011;12726;49.148;8.582;2023-04-25T10:27:20;11.50;;;7.35;;
24557;SDS011;12726;49.148;8.582;2023-04-25T10:30:08;13.75;;;6.85;;
24557;SDS011;12726;49.148;8.582;2023-04-25T10:32:56;14.65;;;7.47;;
24557;SDS011;12726;49.148;8.582;2023-04-25T10:35:41;13.80;;;7.32;;
24557;SDS011;12726;49.148;8.582;2023-04-25T10:38:27;13.60;;;7.82;;
24557;SDS011;12726;49.148;8.582;2023-04-25T10:41:12;14.85;;;7.80;;
24557;SDS011;12726;49.148;8.582;2023-04-25T10:43:59;18.05;;;7.95;;
24557;SDS011;12726;49.148;8.582;2023-04-25T10:46:47;16.83;;;8.82;;
24557;SDS011;12726;49.148;8.582;2023-04-25T10:49:33;14.05;;;8.60;;
24557;SDS011;12726;49.148;8.582;2023-04-25T10:52:24;20.65;;;9.40;;
24557;SDS011;12726;49.148;8.582;2023-04-25T10:55:10;20.25;;;9.15;;
24557;SDS011;12726;49.148;8.582;2023-04-25T10:57:56;15.27;;;8.40;;
24557;SDS011;12726;49.148;8.582;2023-04-25T11:00:41;20.17;;;7.53;;
24557;SDS011;12726;49.148;8.582;2023-04-25T11:03:28;11.98;;;7.10;;
24557;SDS011;12726;49.148;8.582;2023-04-25T11:06:17;15.90;;;7.22;;
24557;SDS011;12726;49.148;8.582;2023-04-25T11:09:08;13.27;;;6.72;;
24557;SDS011;12726;49.148;8.582;2023-04-25T11:11:57;9.98;;;6.80;;
24557;SDS011;12726;49.148;8.582;2023-04-25T11:14:43;14.32;;;6.55;;
24557;SDS011;12726;49.148;8.582;2023-04-25T11:17:29;11.55;;;6.50;;
24557;SDS011;12726;49.148;8.582;2023-04-25T11:20:16;14.10;;;6.88;;
24557;SDS011;12726;49.148;8.582;2023-04-25T11:23:01;14.23;;;6.40;;
24557;SDS011;12726;49.148;8.582;2023-04-25T11:25:47;10.90;;;5.85;;
24557;SDS011;12726;49.148;8.582;2023-04-25T11:28:32;10.25;;;6.00;;
24557;SDS011;12726;49.148;8.582;2023-04-25T11:31:19;9.82;;;6.10;;
24557;SDS011;12726;49.148;8.582;2023-04-25T11:34:05;13.43;;;5.93;;
24557;SDS011;12726;49.148;8.582;2023-04-25T11:36:52;10.43;;;5.95;;
24557;SDS011;12726;49.148;8.582;2023-04-25T11:39:38;9.95;;;6.28;;
24557;SDS011;12726;49.148;8.582;2023-04-25T11:42:23;19.42;;;6.65;;
24557;SDS011;12726;49.148;8.582;2023-04-25T11:45:08;13.10;;;6.70;;
24557;SDS011;12726;49.148;8.582;2023-04-25T11:47:54;12.27;;;7.10;;
24557;SDS011;12726;49.148;8.582;2023-04-25T11:50:39;14.07;;;6.68;;
24557;SDS011;12726;49.148;8.582;2023-04-25T11:53:26;11.18;;;6.30;;
24557;SDS011;12726;49.148;8.582;2023-04-25T11:56:12;18.23;;;7.00;;
24557;SDS011;12726;49.148;8.582;2023-04-25T11:58:58;11.98;;;6.78;;
24557;SDS011;12726;49.148;8.582;2023-04-25T12:01:47;16.45;;;7.78;;
24557;SDS011;12726;49.148;8.582;2023-04-25T12:04:34;18.55;;;8.77;;
24557;SDS011;12726;49.148;8.582;2023-04-25T12:07:19;16.25;;;8.07;;
24557;SDS011;12726;49.148;8.582;2023-04-25T12:10:08;13.85;;;8.23;;
24557;SDS011;12726;49.148;8.582;2023-04-25T12:12:56;15.63;;;7.50;;
24557;SDS011;12726;49.148;8.582;2023-04-25T12:15:49;15.68;;;7.43;;
24557;SDS011;12726;49.148;8.582;2023-04-25T12:18:35;13.23;;;7.05;;
24557;SDS011;12726;49.148;8.582;2023-04-25T12:21:21;12.02;;;7.32;;
24557;SDS011;12726;49.148;8.582;2023-04-25T12:24:09;12.93;;;7.22;;
24557;SDS011;12726;49.148;8.582;2023-04-25T12:27:00;13.93;;;6.68;;
24557;SDS011;12726;49.148;8.582;2023-04-25T12:29:50;14.73;;;6.95;;
24557;SDS011;12726;49.148;8.582;2023-04-25T12:32:36;14.20;;;7.55;;
24557;SDS011;12726;49.148;8.582;2023-04-25T12:35:22;14.82;;;6.95;;
24557;SDS011;12726;49.148;8.582;2023-04-25T12:38:07;11.88;;;7.05;;
24557;SDS011;12726;49.148;8.582;2023-04-25T12:40:53;17.88;;;7.32;;
24557;SDS011;12726;49.148;8.582;2023-04-25T12:43:40;11.68;;;6.45;;
24557;SDS011;12726;49.148;8.582;2023-04-25T12:46:26;12.18;;;6.75;;
24557;SDS011;12726;49.148;8.582;2023-04-25T12:49:11;12.40;;;6.95;;
24557;SDS011;12726;49.148;8.582;2023-04-25T12:51:57;12.95;;;7.30;;
24557;SDS011;12726;49.148;8.582;2023-04-25T12:54:42;11.82;;;7.03;;
24557;SDS011;12726;49.148;8.582;2023-04-25T12:57:27;13.57;;;7.53;;
24557;SDS011;12726;49.148;8.582;2023-04-25T13:00:15;13.10;;;7.13;;
24557;SDS011;12726;49.148;8.582;2023-04-25T13:03:02;11.07;;;6.28;;
24557;SDS011;12726;49.148;8.582;2023-04-25T13:05:48;11.65;;;6.85;;
24557;SDS011;12726;49.148;8.582;2023-04-25T13:08:34;15.25;;;7.60;;
24557;SDS011;12726;49.148;8.582;2023-04-25T13:11:20;9.98;;;6.32;;
24557;SDS011;12726;49.148;8.582;2023-04-25T13:14:06;13.35;;;6.97;;
24557;SDS011;12726;49.148;8.582;2023-04-25T13:16:53;10.90;;;6.80;;
24557;SDS011;12726;49.148;8.582;2023-04-25T13:19:38;11.25;;;7.28;;
24557;SDS011;12726;49.148;8.582;2023-04-25T13:22:24;12.13;;;6.85;;
24557;SDS011;12726;49.148;8.582;2023-04-25T13:25:09;13.60;;;6.88;;
24557;SDS011;12726;49.148;8.582;2023-04-25T13:27:55;10.98;;;5.80;;
24557;SDS011;12726;49.148;8.582;2023-04-25T13:30:40;14.02;;;7.28;;
24557;SDS011;12726;49.148;8.582;2023-04-25T13:33:27;13.18;;;7.20;;
24557;SDS011;12726;49.148;8.582;2023-04-25T13:36:12;11.73;;;6.28;;
24557;SDS011;12726;49.148;8.582;2023-04-25T13:38:58;10.85;;;6.25;;
24557;SDS011;12726;49.148;8.582;2023-04-25T13:41:43;12.65;;;6.00;;
24557;SDS011;12726;49.148;8.582;2023-04-25T13:44:28;10.98;;;5.97;;
24557;SDS011;12726;49.148;8.582;2023-04-25T13:47:14;10.23;;;5.25;;
24557;SDS011;12726;49.148;8.582;2023-04-25T13:50:01;9.30;;;5.10;;
24557;SDS011;12726;49.148;8.582;2023-04-25T13:52:46;10.15;;;5.43;;
24557;SDS011;12726;49.148;8.582;2023-04-25T13:55:33;8.00;;;5.00;;
24557;SDS011;12726;49.148;8.582;2023-04-25T13:58:19;9.38;;;4.47;;
24557;SDS011;12726;49.148;8.582;2023-04-25T14:01:04;8.15;;;4.45;;
24557;SDS011;12726;49.148;8.582;2023-04-25T14:03:50;8.25;;;5.38;;
24557;SDS011;12726;49.148;8.582;2023-04-25T14:06:36;6.50;;;4.43;;
24557;SDS011;12726;49.148;8.582;2023-04-25T14:09:22;9.45;;;3.78;;
24557;SDS011;12726;49.148;8.582;2023-04-25T14:12:09;9.38;;;4.30;;
24557;SDS011;12726;49.148;8.582;2023-04-25T14:14:54;5.70;;;3.78;;
24557;SDS011;12726;49.148;8.582;2023-04-25T14:17:40;8.68;;;4.07;;
24557;SDS011;12726;49.148;8.582;2023-04-25T14:20:25;6.85;;;4.05;;
24557;SDS011;12726;49.148;8.582;2023-04-25T14:23:12;6.32;;;3.72;;
24557;SDS011;12726;49.148;8.582;2023-04-25T14:25:57;7.03;;;3.47;;
24557;SDS011;12726;49.148;8.582;2023-04-25T14:28:42;4.65;;;3.42;;
24557;SDS011;12726;49.148;8.582;2023-04-25T14:31:28;6.75;;;3.83;;
24557;SDS011;12726;49.148;8.582;2023-04-25T14:34:13;5.05;;;3.30;;
24557;SDS011;12726;49.148;8.582;2023-04-25T14:36:59;6.10;;;3.65;;
24557;SDS011;12726;49.148;8.582;2023-04-25T14:39:46;6.00;;;3.30;;
24557;SDS011;12726;49.148;8.582;2023-04-25T14:42:31;6.28;;;3.60;;
24557;SDS011;12726;49.148;8.582;2023-04-25T14:45:18;4.88;;;3.05;;
24557;SDS011;12726;49.148;8.582;2023-04-25T14:48:03;5.95;;;3.45;;
24557;SDS011;12726;49.148;8.582;2023-04-25T14:50:49;5.40;;;3.20;;
24557;SDS011;12726;49.148;8.582;2023-04-25T14:53:34;4.60;;;3.20;;
24557;SDS011;12726;49.148;8.582;2023-04-25T14:56:21;5.85;;;3.60;;
24557;SDS011;12726;49.148;8.582;2023-04-25T14:59:06;5.93;;;3.63;;
24557;SDS011;12726;49.148;8.582;2023-04-25T15:01:52;7.50;;;3.58;;
24557;SDS011;12726;49.148;8.582;2023-04-25T15:04:37;7.32;;;3.95;;
24557;SDS011;12726;49.148;8.582;2023-04-25T15:07:23;5.57;;;3.15;;
24557;SDS011;12726;49.148;8.582;2023-04-25T15:10:08;6.28;;;3.40;;
24557;SDS011;12726;49.148;8.582;2023-04-25T15:12:58;7.28;;;3.20;;
24557;SDS011;12726;49.148;8.582;2023-04-25T15:15:43;8.82;;;4.00;;
24557;SDS011;12726;49.148;8.582;2023-04-25T15:18:34;7.28;;;4.30;;
24557;SDS011;12726;49.148;8.582;2023-04-25T15:21:20;6.85;;;3.70;;
24557;SDS011;12726;49.148;8.582;2023-04-25T15:24:05;6.22;;;3.45;;
24557;SDS011;12726;49.148;8.582;2023-04-25T15:26:51;6.53;;;4.00;;
24557;SDS011;12726;49.148;8.582;2023-04-25T15:29:37;7.93;;;3.78;;
24557;SDS011;12726;49.148;8.582;2023-04-25T15:32:23;7.88;;;3.35;;
24557;SDS011;12726;49.148;8.582;2023-04-25T15:35:09;7.18;;;3.90;;
24557;SDS011;12726;49.148;8.582;2023-04-25T15:37:55;7.75;;;3.47;;
24557;SDS011;12726;49.148;8.582;2023-04-25T15:40:40;6.47;;;3.42;;
24557;SDS011;12726;49.148;8.582;2023-04-25T15:43:25;5.20;;;3.30;;
24557;SDS011;12726;49.148;8.582;2023-04-25T15:46:12;10.20;;;4.50;;
24557;SDS011;12726;49.148;8.582;2023-04-25T15:48:58;7.03;;;4.57;;
24557;SDS011;12726;49.148;8.582;2023-04-25T15:51:43;7.68;;;4.20;;
24557;SDS011;12726;49.148;8.582;2023-04-25T15:54:28;8.35;;;5.72;;
24557;SDS011;12726;49.148;8.582;2023-04-25T15:57:13;10.65;;;4.72;;
24557;SDS011;12726;49.148;8.582;2023-04-25T16:00:00;10.45;;;5.50;;
24557;SDS011;12726;49.148;8.582;2023-04-25T16:02:49;10.90;;;5.85;;
24557;SDS011;12726;49.148;8.582;2023-04-25T16:05:35;14.00;;;6.93;;
24557;SDS011;12726;49.148;8.582;2023-04-25T16:08:21;12.50;;;6.00;;
24557;SDS011;12726;49.148;8.582;2023-04-25T16:11:06;12.13;;;6.43;;
24557;SDS011;12726;49.148;8.582;2023-04-25T16:13:52;12.10;;;5.93;;
24557;SDS011;12726;49.148;8.582;2023-04-25T16:16:37;10.15;;;6.07;;
24557;SDS011;12726;49.148;8.582;2023-04-25T16:19:24;9.90;;;6.70;;
24557;SDS011;12726;49.148;8.582;2023-04-25T16:22:09;9.93;;;6.55;;
24557;SDS011;12726;49.148;8.582;2023-04-25T16:24:58;11.60;;;6.95;;
24557;SDS011;12726;49.148;8.582;2023-04-25T16:27:44;10.93;;;6.60;;
24557;SDS011;12726;49.148;8.582;2023-04-25T16:30:29;12.98;;;6.63;;
24557;SDS011;12726;49.148;8.582;2023-04-25T16:33:14;11.45;;;6.80;;
24557;SDS011;12726;49.148;8.582;2023-04-25T16:36:01;9.90;;;6.63;;